Billund, Denmark
Current Conditions -  °F | °C
As of 5:50 AM on Monday 22 Dec 2014 (Local Time) from EKBI Reporting Station
Light Rain Light Rain  
Wind Chill: 50°   Ceiling: 600
Heat Index: 50°   Visibility: 6mi
Dew Point: 48°   Wind: 23mph
Humidity: 94%   Direction: 260°W
Pressure: 29.53"   Gusts: NA
Location:  55.73°N, 9.11°E
Report Text: EKBI 220450Z 26020KT 9999 -RA BKN006 10/09 Q1000
Loading
Personal Weather Stations






























Interactive Weather Map New forecast layout! Learn more

10-Day Weather Forecast

Advertisements
Track Severe Weather on mobile